VHLLA YSHL-YBLT
Flight info
| Callsign | VHLLA |
|---|---|
| Flight time | N/A |
| Altitude | 12000 |
| Route | EXETA V169 ML W15 IGNES |
| Aircraft | P28S/L-SDFGRY/C |
Departure
| Time | 2026-04-29 07:34 |
|---|---|
| Airport | Shellharbour Airport (YSHL) |
Arrival
| Time | N/A |
|---|---|
| Airport | Ballarat Airport (YBLT) |
| Time | Latitude | Longitude | Altitude | Speed | Heading |
|---|---|---|---|---|---|
| 2026-04-29 07:26 | -34.55924 | 150.78868 | 31 ft | 0 kts | 262° |
| 2026-04-29 07:27 | -34.55924 | 150.78863 | 30 ft | 3 kts | 263° |
| 2026-04-29 07:28 | -34.55940 | 150.78846 | 28 ft | 6 kts | 172° |
| 2026-04-29 07:28 | -34.56012 | 150.78861 | 29 ft | 13 kts | 168° |
| 2026-04-29 07:28 | -34.56075 | 150.78877 | 31 ft | 5 kts | 170° |
| 2026-04-29 07:28 | -34.56092 | 150.78880 | 31 ft | 1 kts | 172° |
| 2026-04-29 07:29 | -34.56100 | 150.78881 | 31 ft | 1 kts | 174° |
| 2026-04-29 07:29 | -34.56108 | 150.78882 | 31 ft | 1 kts | 175° |
| 2026-04-29 07:29 | -34.56117 | 150.78883 | 31 ft | 3 kts | 177° |
| 2026-04-29 07:29 | -34.56149 | 150.78890 | 31 ft | 7 kts | 160° |
| 2026-04-29 07:30 | -34.56178 | 150.78897 | 32 ft | 4 kts | 176° |
| 2026-04-29 07:30 | -34.56198 | 150.78898 | 31 ft | 0 kts | 181° |
| 2026-04-29 07:30 | -34.56200 | 150.78898 | 31 ft | 0 kts | 181° |
| 2026-04-29 07:31 | -34.56255 | 150.78895 | 31 ft | 11 kts | 187° |
| 2026-04-29 07:31 | -34.56272 | 150.78808 | 31 ft | 12 kts | 276° |
| 2026-04-29 07:31 | -34.56262 | 150.78697 | 32 ft | 15 kts | 275° |
| 2026-04-29 07:31 | -34.56253 | 150.78544 | 32 ft | 22 kts | 273° |
| 2026-04-29 07:32 | -34.56242 | 150.78368 | 33 ft | 18 kts | 274° |
| 2026-04-29 07:32 | -34.56238 | 150.78235 | 32 ft | 12 kts | 258° |
| 2026-04-29 07:32 | -34.56230 | 150.78222 | 32 ft | 3 kts | 103° |
| 2026-04-29 07:32 | -34.56235 | 150.78270 | 33 ft | 21 kts | 96° |
| 2026-04-29 07:33 | -34.56257 | 150.78649 | 32 ft | 66 kts | 95° |
| 2026-04-29 07:33 | -34.56293 | 150.79258 | 107 ft | 75 kts | 97° |
| 2026-04-29 07:33 | -34.56348 | 150.79906 | 234 ft | 79 kts | 106° |
| 2026-04-29 07:33 | -34.56489 | 150.80509 | 482 ft | 71 kts | 102° |
| 2026-04-29 07:34 | -34.56582 | 150.81152 | 670 ft | 84 kts | 98° |
| 2026-04-29 07:34 | -34.56676 | 150.81934 | 804 ft | 102 kts | 99° |
| 2026-04-29 07:34 | -34.56799 | 150.82829 | 943 ft | 109 kts | 98° |
| 2026-04-29 07:34 | -34.56921 | 150.83731 | 1186 ft | 108 kts | 98° |
| 2026-04-29 07:35 | -34.57053 | 150.84626 | 1389 ft | 109 kts | 99° |
| 2026-04-29 07:35 | -34.57227 | 150.85537 | 1584 ft | 110 kts | 107° |
| 2026-04-29 07:35 | -34.57587 | 150.86366 | 1736 ft | 115 kts | 122° |
| 2026-04-29 07:35 | -34.58211 | 150.86997 | 1889 ft | 122 kts | 149° |
| 2026-04-29 07:36 | -34.59069 | 150.87227 | 1994 ft | 131 kts | 176° |
| 2026-04-29 07:36 | -34.59928 | 150.86994 | 2261 ft | 127 kts | 200° |
| 2026-04-29 07:36 | -34.60660 | 150.86382 | 2434 ft | 128 kts | 218° |
| 2026-04-29 07:36 | -34.61246 | 150.85591 | 2665 ft | 123 kts | 232° |
| 2026-04-29 07:37 | -34.61687 | 150.84720 | 2877 ft | 119 kts | 242° |
| 2026-04-29 07:37 | -34.61940 | 150.83773 | 3114 ft | 116 kts | 258° |
| 2026-04-29 07:37 | -34.62074 | 150.82808 | 3315 ft | 116 kts | 260° |
| 2026-04-29 07:37 | -34.62218 | 150.81866 | 3529 ft | 115 kts | 259° |
| 2026-04-29 07:38 | -34.62374 | 150.80881 | 3662 ft | 122 kts | 261° |
| 2026-04-29 07:38 | -34.62420 | 150.79882 | 3905 ft | 116 kts | 270° |
| 2026-04-29 07:38 | -34.62452 | 150.78894 | 4066 ft | 117 kts | 269° |
| 2026-04-29 07:38 | -34.62488 | 150.77907 | 4204 ft | 118 kts | 269° |
| 2026-04-29 07:39 | -34.62516 | 150.76909 | 4375 ft | 118 kts | 270° |
| 2026-04-29 07:39 | -34.62548 | 150.75907 | 4543 ft | 118 kts | 270° |
| 2026-04-29 07:39 | -34.62580 | 150.74903 | 4698 ft | 120 kts | 269° |
| 2026-04-29 07:39 | -34.62615 | 150.73895 | 4862 ft | 120 kts | 269° |
| 2026-04-29 07:40 | -34.62648 | 150.72873 | 5022 ft | 121 kts | 270° |
| 2026-04-29 07:40 | -34.62678 | 150.71851 | 5195 ft | 120 kts | 270° |
| 2026-04-29 07:40 | -34.62713 | 150.70835 | 5319 ft | 121 kts | 270° |
| 2026-04-29 07:40 | -34.62744 | 150.69810 | 5452 ft | 121 kts | 270° |
| 2026-04-29 07:41 | -34.62777 | 150.68783 | 5573 ft | 123 kts | 270° |
| 2026-04-29 07:41 | -34.62811 | 150.67747 | 5706 ft | 122 kts | 270° |
| 2026-04-29 07:41 | -34.62844 | 150.66712 | 5840 ft | 123 kts | 271° |
| 2026-04-29 07:41 | -34.62877 | 150.65675 | 5976 ft | 124 kts | 271° |
| 2026-04-29 07:42 | -34.62912 | 150.64629 | 6115 ft | 124 kts | 272° |
| 2026-04-29 07:42 | -34.62947 | 150.63586 | 6248 ft | 124 kts | 272° |
| 2026-04-29 07:42 | -34.62982 | 150.62551 | 6439 ft | 121 kts | 271° |